sensor_id;sensor_type;location;lat;lon;timestamp;temperature;humidity
6106;DHT22;3083;51.508;7.966;2023-06-26T00:02:13;21.70;99.90
6106;DHT22;3083;51.508;7.966;2023-06-26T00:04:41;21.80;99.90
6106;DHT22;3083;51.508;7.966;2023-06-26T00:07:08;21.80;99.90
6106;DHT22;3083;51.508;7.966;2023-06-26T00:09:35;21.90;99.90
6106;DHT22;3083;51.508;7.966;2023-06-26T00:12:02;21.90;99.90
6106;DHT22;3083;51.508;7.966;2023-06-26T00:14:29;21.90;99.90
6106;DHT22;3083;51.508;7.966;2023-06-26T00:16:57;21.90;99.90
6106;DHT22;3083;51.508;7.966;2023-06-26T00:19:24;21.90;99.90
6106;DHT22;3083;51.508;7.966;2023-06-26T00:21:51;21.90;99.90
6106;DHT22;3083;51.508;7.966;2023-06-26T00:24:18;21.90;99.90
6106;DHT22;3083;51.508;7.966;2023-06-26T00:26:47;21.80;99.90
6106;DHT22;3083;51.508;7.966;2023-06-26T00:29:14;21.80;99.90
6106;DHT22;3083;51.508;7.966;2023-06-26T00:31:40;21.80;99.90
6106;DHT22;3083;51.508;7.966;2023-06-26T00:34:09;21.80;99.90
6106;DHT22;3083;51.508;7.966;2023-06-26T00:36:36;21.80;99.90
6106;DHT22;3083;51.508;7.966;2023-06-26T00:39:02;21.80;99.90
6106;DHT22;3083;51.508;7.966;2023-06-26T00:41:31;21.80;99.90
6106;DHT22;3083;51.508;7.966;2023-06-26T00:43:57;21.80;99.90
6106;DHT22;3083;51.508;7.966;2023-06-26T00:46:24;21.70;99.90
6106;DHT22;3083;51.508;7.966;2023-06-26T00:48:52;21.70;99.90
6106;DHT22;3083;51.508;7.966;2023-06-26T00:51:20;21.60;99.90
6106;DHT22;3083;51.508;7.966;2023-06-26T00:53:48;21.60;99.90
6106;DHT22;3083;51.508;7.966;2023-06-26T00:56:15;21.60;99.90
6106;DHT22;3083;51.508;7.966;2023-06-26T00:58:44;21.60;99.90
6106;DHT22;3083;51.508;7.966;2023-06-26T01:01:11;21.50;99.90
6106;DHT22;3083;51.508;7.966;2023-06-26T01:03:43;21.50;99.90
6106;DHT22;3083;51.508;7.966;2023-06-26T01:06:12;21.50;99.90
6106;DHT22;3083;51.508;7.966;2023-06-26T01:08:42;21.50;99.90
6106;DHT22;3083;51.508;7.966;2023-06-26T01:11:09;21.40;99.90
6106;DHT22;3083;51.508;7.966;2023-06-26T01:13:37;21.40;99.90
6106;DHT22;3083;51.508;7.966;2023-06-26T01:16:05;21.30;99.90
6106;DHT22;3083;51.508;7.966;2023-06-26T01:18:33;21.30;99.90
6106;DHT22;3083;51.508;7.966;2023-06-26T01:21:02;21.20;99.90
6106;DHT22;3083;51.508;7.966;2023-06-26T01:23:47;21.20;99.90
6106;DHT22;3083;51.508;7.966;2023-06-26T01:26:19;21.20;99.90
6106;DHT22;3083;51.508;7.966;2023-06-26T01:28:49;21.20;99.90
6106;DHT22;3083;51.508;7.966;2023-06-26T01:31:17;21.10;99.90
6106;DHT22;3083;51.508;7.966;2023-06-26T01:33:45;21.10;99.90
6106;DHT22;3083;51.508;7.966;2023-06-26T01:36:12;21.10;99.90
6106;DHT22;3083;51.508;7.966;2023-06-26T01:38:39;21.10;99.90
6106;DHT22;3083;51.508;7.966;2023-06-26T01:41:06;21.10;99.90
6106;DHT22;3083;51.508;7.966;2023-06-26T01:43:40;21.10;99.90
6106;DHT22;3083;51.508;7.966;2023-06-26T01:46:11;21.10;99.90
6106;DHT22;3083;51.508;7.966;2023-06-26T01:48:46;21.00;99.90
6106;DHT22;3083;51.508;7.966;2023-06-26T01:51:14;21.00;99.90
6106;DHT22;3083;51.508;7.966;2023-06-26T01:53:46;21.00;99.90
6106;DHT22;3083;51.508;7.966;2023-06-26T01:56:16;20.90;99.90
6106;DHT22;3083;51.508;7.966;2023-06-26T01:58:47;20.90;99.90
6106;DHT22;3083;51.508;7.966;2023-06-26T02:01:14;20.80;99.90
6106;DHT22;3083;51.508;7.966;2023-06-26T02:03:42;20.80;99.90
6106;DHT22;3083;51.508;7.966;2023-06-26T02:06:08;20.80;99.90
6106;DHT22;3083;51.508;7.966;2023-06-26T02:08:36;20.80;99.90
6106;DHT22;3083;51.508;7.966;2023-06-26T02:11:02;20.70;99.90
6106;DHT22;3083;51.508;7.966;2023-06-26T02:13:29;20.70;99.90
6106;DHT22;3083;51.508;7.966;2023-06-26T02:15:57;20.60;99.90
6106;DHT22;3083;51.508;7.966;2023-06-26T02:18:24;20.60;99.90
6106;DHT22;3083;51.508;7.966;2023-06-26T02:20:51;20.60;99.90
6106;DHT22;3083;51.508;7.966;2023-06-26T02:23:18;20.60;99.90
6106;DHT22;3083;51.508;7.966;2023-06-26T02:25:45;20.60;99.90
6106;DHT22;3083;51.508;7.966;2023-06-26T02:28:11;20.60;99.90
6106;DHT22;3083;51.508;7.966;2023-06-26T02:30:38;20.60;99.90
6106;DHT22;3083;51.508;7.966;2023-06-26T02:33:06;20.60;99.90
6106;DHT22;3083;51.508;7.966;2023-06-26T02:35:33;20.60;99.90
6106;DHT22;3083;51.508;7.966;2023-06-26T02:38:00;20.60;99.90
6106;DHT22;3083;51.508;7.966;2023-06-26T02:40:27;20.60;99.90
6106;DHT22;3083;51.508;7.966;2023-06-26T02:42:54;20.60;99.90
6106;DHT22;3083;51.508;7.966;2023-06-26T02:45:21;20.50;99.90
6106;DHT22;3083;51.508;7.966;2023-06-26T02:47:47;20.50;99.90
6106;DHT22;3083;51.508;7.966;2023-06-26T02:50:16;20.50;99.90
6106;DHT22;3083;51.508;7.966;2023-06-26T02:52:42;20.40;99.90
6106;DHT22;3083;51.508;7.966;2023-06-26T02:55:09;20.40;99.90
6106;DHT22;3083;51.508;7.966;2023-06-26T02:57:36;20.40;99.90
6106;DHT22;3083;51.508;7.966;2023-06-26T03:00:03;20.30;99.90
6106;DHT22;3083;51.508;7.966;2023-06-26T03:02:33;20.30;99.90
6106;DHT22;3083;51.508;7.966;2023-06-26T03:05:00;20.20;99.90
6106;DHT22;3083;51.508;7.966;2023-06-26T03:07:29;20.20;99.90
6106;DHT22;3083;51.508;7.966;2023-06-26T03:09:56;20.10;99.90
6106;DHT22;3083;51.508;7.966;2023-06-26T03:12:25;20.10;99.90
6106;DHT22;3083;51.508;7.966;2023-06-26T03:14:51;20.00;99.90
6106;DHT22;3083;51.508;7.966;2023-06-26T03:17:18;19.90;99.90
6106;DHT22;3083;51.508;7.966;2023-06-26T03:19:45;19.90;99.90
6106;DHT22;3083;51.508;7.966;2023-06-26T03:22:12;19.90;99.90
6106;DHT22;3083;51.508;7.966;2023-06-26T03:24:41;19.90;99.90
6106;DHT22;3083;51.508;7.966;2023-06-26T03:27:10;19.90;99.90
6106;DHT22;3083;51.508;7.966;2023-06-26T03:29:37;19.90;99.90
6106;DHT22;3083;51.508;7.966;2023-06-26T03:32:04;19.90;99.90
6106;DHT22;3083;51.508;7.966;2023-06-26T03:34:31;19.80;99.90
6106;DHT22;3083;51.508;7.966;2023-06-26T03:36:58;19.70;99.90
6106;DHT22;3083;51.508;7.966;2023-06-26T03:39:25;19.60;99.90
6106;DHT22;3083;51.508;7.966;2023-06-26T03:41:53;19.60;99.90
6106;DHT22;3083;51.508;7.966;2023-06-26T03:44:22;19.50;99.90
6106;DHT22;3083;51.508;7.966;2023-06-26T03:46:49;19.50;99.90
6106;DHT22;3083;51.508;7.966;2023-06-26T03:49:16;19.50;99.90
6106;DHT22;3083;51.508;7.966;2023-06-26T03:51:43;19.50;99.90
6106;DHT22;3083;51.508;7.966;2023-06-26T03:54:10;19.50;99.90
6106;DHT22;3083;51.508;7.966;2023-06-26T03:56:36;19.50;99.90
6106;DHT22;3083;51.508;7.966;2023-06-26T03:59:05;19.50;99.90
6106;DHT22;3083;51.508;7.966;2023-06-26T04:01:32;19.50;99.90
6106;DHT22;3083;51.508;7.966;2023-06-26T04:04:00;19.50;99.90
6106;DHT22;3083;51.508;7.966;2023-06-26T04:06:27;19.60;99.90
6106;DHT22;3083;51.508;7.966;2023-06-26T04:08:53;19.60;99.90
6106;DHT22;3083;51.508;7.966;2023-06-26T04:11:20;19.70;99.90
6106;DHT22;3083;51.508;7.966;2023-06-26T04:13:47;19.70;99.90
6106;DHT22;3083;51.508;7.966;2023-06-26T04:16:15;19.70;99.90
6106;DHT22;3083;51.508;7.966;2023-06-26T04:18:42;19.70;99.90
6106;DHT22;3083;51.508;7.966;2023-06-26T04:21:11;19.70;99.90
6106;DHT22;3083;51.508;7.966;2023-06-26T04:23:38;19.70;99.90
6106;DHT22;3083;51.508;7.966;2023-06-26T04:26:06;19.70;99.90
6106;DHT22;3083;51.508;7.966;2023-06-26T04:28:33;19.70;99.90
6106;DHT22;3083;51.508;7.966;2023-06-26T04:31:00;19.70;99.90
6106;DHT22;3083;51.508;7.966;2023-06-26T04:33:29;19.80;99.90
6106;DHT22;3083;51.508;7.966;2023-06-26T04:35:56;19.90;99.90
6106;DHT22;3083;51.508;7.966;2023-06-26T04:38:23;19.90;99.90
6106;DHT22;3083;51.508;7.966;2023-06-26T04:40:50;19.90;99.90
6106;DHT22;3083;51.508;7.966;2023-06-26T04:43:16;20.00;99.90
6106;DHT22;3083;51.508;7.966;2023-06-26T04:45:43;20.00;99.90
6106;DHT22;3083;51.508;7.966;2023-06-26T04:48:10;20.10;99.90
6106;DHT22;3083;51.508;7.966;2023-06-26T04:50:39;20.10;99.90
6106;DHT22;3083;51.508;7.966;2023-06-26T04:53:06;20.20;99.90
6106;DHT22;3083;51.508;7.966;2023-06-26T04:55:33;20.30;99.90
6106;DHT22;3083;51.508;7.966;2023-06-26T04:58:00;20.40;99.90
6106;DHT22;3083;51.508;7.966;2023-06-26T05:00:27;20.40;99.90
6106;DHT22;3083;51.508;7.966;2023-06-26T05:02:54;20.50;99.90
6106;DHT22;3083;51.508;7.966;2023-06-26T05:05:26;20.60;99.90
6106;DHT22;3083;51.508;7.966;2023-06-26T05:07:55;20.70;99.90
6106;DHT22;3083;51.508;7.966;2023-06-26T05:10:22;20.80;99.90
6106;DHT22;3083;51.508;7.966;2023-06-26T05:12:49;20.90;99.90
6106;DHT22;3083;51.508;7.966;2023-06-26T05:15:16;21.00;99.90
6106;DHT22;3083;51.508;7.966;2023-06-26T05:17:43;21.00;99.90
6106;DHT22;3083;51.508;7.966;2023-06-26T05:20:10;21.10;99.90
6106;DHT22;3083;51.508;7.966;2023-06-26T05:22:37;21.20;99.90
6106;DHT22;3083;51.508;7.966;2023-06-26T05:25:08;21.30;99.90
6106;DHT22;3083;51.508;7.966;2023-06-26T05:27:37;21.40;99.90
6106;DHT22;3083;51.508;7.966;2023-06-26T05:30:04;21.50;99.90
6106;DHT22;3083;51.508;7.966;2023-06-26T05:32:33;21.60;99.90
6106;DHT22;3083;51.508;7.966;2023-06-26T05:35:02;21.60;99.90
6106;DHT22;3083;51.508;7.966;2023-06-26T05:37:29;21.70;99.90
6106;DHT22;3083;51.508;7.966;2023-06-26T05:39:57;21.80;99.90
6106;DHT22;3083;51.508;7.966;2023-06-26T05:42:26;21.80;99.90
6106;DHT22;3083;51.508;7.966;2023-06-26T05:44:53;21.90;99.90
6106;DHT22;3083;51.508;7.966;2023-06-26T05:47:20;22.00;99.90
6106;DHT22;3083;51.508;7.966;2023-06-26T05:49:47;22.00;99.90
6106;DHT22;3083;51.508;7.966;2023-06-26T05:52:15;22.10;99.90
6106;DHT22;3083;51.508;7.966;2023-06-26T05:54:42;22.30;99.90
6106;DHT22;3083;51.508;7.966;2023-06-26T05:57:10;22.50;99.90
6106;DHT22;3083;51.508;7.966;2023-06-26T05:59:40;22.70;99.90
6106;DHT22;3083;51.508;7.966;2023-06-26T06:02:07;23.00;99.90
6106;DHT22;3083;51.508;7.966;2023-06-26T06:04:34;23.30;99.90
6106;DHT22;3083;51.508;7.966;2023-06-26T06:07:03;23.60;99.90
6106;DHT22;3083;51.508;7.966;2023-06-26T06:09:30;23.90;99.90
6106;DHT22;3083;51.508;7.966;2023-06-26T06:11:56;24.20;99.90
6106;DHT22;3083;51.508;7.966;2023-06-26T06:14:23;24.40;99.90
6106;DHT22;3083;51.508;7.966;2023-06-26T06:16:51;24.50;99.90
6106;DHT22;3083;51.508;7.966;2023-06-26T06:19:18;24.60;99.90
6106;DHT22;3083;51.508;7.966;2023-06-26T06:21:45;24.90;99.90
6106;DHT22;3083;51.508;7.966;2023-06-26T06:24:12;25.20;99.90
6106;DHT22;3083;51.508;7.966;2023-06-26T06:26:39;25.40;99.90
6106;DHT22;3083;51.508;7.966;2023-06-26T06:29:06;25.50;99.90
6106;DHT22;3083;51.508;7.966;2023-06-26T06:31:33;25.60;99.90
6106;DHT22;3083;51.508;7.966;2023-06-26T06:34:01;25.80;99.90
6106;DHT22;3083;51.508;7.966;2023-06-26T06:36:28;26.00;99.90
6106;DHT22;3083;51.508;7.966;2023-06-26T06:38:55;26.00;99.90
6106;DHT22;3083;51.508;7.966;2023-06-26T06:41:22;26.00;99.90
6106;DHT22;3083;51.508;7.966;2023-06-26T06:43:49;26.00;99.90
6106;DHT22;3083;51.508;7.966;2023-06-26T06:46:16;25.80;99.90
6106;DHT22;3083;51.508;7.966;2023-06-26T06:48:42;25.70;99.90
6106;DHT22;3083;51.508;7.966;2023-06-26T06:51:11;25.40;99.90
6106;DHT22;3083;51.508;7.966;2023-06-26T06:53:37;25.40;99.90
6106;DHT22;3083;51.508;7.966;2023-06-26T06:56:04;25.30;99.90
6106;DHT22;3083;51.508;7.966;2023-06-26T06:58:31;25.10;99.90
6106;DHT22;3083;51.508;7.966;2023-06-26T07:00:59;25.00;99.90
6106;DHT22;3083;51.508;7.966;2023-06-26T07:03:28;25.10;99.90
6106;DHT22;3083;51.508;7.966;2023-06-26T07:05:55;25.20;99.90
6106;DHT22;3083;51.508;7.966;2023-06-26T07:08:23;25.20;99.90
6106;DHT22;3083;51.508;7.966;2023-06-26T07:10:50;25.00;99.90
6106;DHT22;3083;51.508;7.966;2023-06-26T07:13:17;24.70;99.90
6106;DHT22;3083;51.508;7.966;2023-06-26T07:15:45;24.40;99.90
6106;DHT22;3083;51.508;7.966;2023-06-26T07:18:13;24.20;99.90
6106;DHT22;3083;51.508;7.966;2023-06-26T07:20:40;24.00;99.90
6106;DHT22;3083;51.508;7.966;2023-06-26T07:23:07;24.10;99.90
6106;DHT22;3083;51.508;7.966;2023-06-26T07:25:35;24.50;99.90
6106;DHT22;3083;51.508;7.966;2023-06-26T07:28:02;24.90;99.90
6106;DHT22;3083;51.508;7.966;2023-06-26T07:30:29;25.30;99.90
6106;DHT22;3083;51.508;7.966;2023-06-26T07:32:56;25.40;99.90
6106;DHT22;3083;51.508;7.966;2023-06-26T07:35:23;25.20;99.90
6106;DHT22;3083;51.508;7.966;2023-06-26T07:37:53;24.90;99.90
6106;DHT22;3083;51.508;7.966;2023-06-26T07:40:19;24.70;99.90
6106;DHT22;3083;51.508;7.966;2023-06-26T07:42:47;24.90;99.90
6106;DHT22;3083;51.508;7.966;2023-06-26T07:45:15;25.20;99.90
6106;DHT22;3083;51.508;7.966;2023-06-26T07:47:43;25.40;99.90
6106;DHT22;3083;51.508;7.966;2023-06-26T07:50:10;25.50;99.90
6106;DHT22;3083;51.508;7.966;2023-06-26T07:52:37;25.70;99.90
6106;DHT22;3083;51.508;7.966;2023-06-26T07:55:05;25.90;99.90
6106;DHT22;3083;51.508;7.966;2023-06-26T07:57:32;26.00;99.90
6106;DHT22;3083;51.508;7.966;2023-06-26T08:00:00;26.10;99.90
6106;DHT22;3083;51.508;7.966;2023-06-26T08:02:27;26.20;99.90
6106;DHT22;3083;51.508;7.966;2023-06-26T08:04:54;26.10;99.90
6106;DHT22;3083;51.508;7.966;2023-06-26T08:07:21;26.20;99.90
6106;DHT22;3083;51.508;7.966;2023-06-26T08:09:48;26.20;99.90
6106;DHT22;3083;51.508;7.966;2023-06-26T08:12:14;26.00;99.90
6106;DHT22;3083;51.508;7.966;2023-06-26T08:14:41;25.80;99.90
6106;DHT22;3083;51.508;7.966;2023-06-26T08:17:09;25.70;99.90
6106;DHT22;3083;51.508;7.966;2023-06-26T08:19:36;25.60;99.90
6106;DHT22;3083;51.508;7.966;2023-06-26T08:22:03;25.30;99.90
6106;DHT22;3083;51.508;7.966;2023-06-26T08:24:30;25.10;99.90
6106;DHT22;3083;51.508;7.966;2023-06-26T08:26:57;24.90;99.90
6106;DHT22;3083;51.508;7.966;2023-06-26T08:29:24;24.90;99.90
6106;DHT22;3083;51.508;7.966;2023-06-26T08:31:51;25.10;99.90
6106;DHT22;3083;51.508;7.966;2023-06-26T08:34:19;25.40;99.90
6106;DHT22;3083;51.508;7.966;2023-06-26T08:36:46;25.70;99.90
6106;DHT22;3083;51.508;7.966;2023-06-26T08:39:13;26.00;99.90
6106;DHT22;3083;51.508;7.966;2023-06-26T08:41:40;26.30;99.90
6106;DHT22;3083;51.508;7.966;2023-06-26T08:44:07;26.50;99.90
6106;DHT22;3083;51.508;7.966;2023-06-26T08:46:34;26.60;99.90
6106;DHT22;3083;51.508;7.966;2023-06-26T08:49:07;26.70;99.90
6106;DHT22;3083;51.508;7.966;2023-06-26T08:51:37;26.80;99.90
6106;DHT22;3083;51.508;7.966;2023-06-26T08:54:09;26.90;99.90
6106;DHT22;3083;51.508;7.966;2023-06-26T08:56:41;27.10;99.90
6106;DHT22;3083;51.508;7.966;2023-06-26T08:59:09;27.30;99.90
6106;DHT22;3083;51.508;7.966;2023-06-26T09:01:38;27.40;99.90
6106;DHT22;3083;51.508;7.966;2023-06-26T09:04:05;27.40;99.90
6106;DHT22;3083;51.508;7.966;2023-06-26T09:06:32;27.10;99.90
6106;DHT22;3083;51.508;7.966;2023-06-26T09:09:00;26.90;99.90
6106;DHT22;3083;51.508;7.966;2023-06-26T09:11:28;26.70;99.90
6106;DHT22;3083;51.508;7.966;2023-06-26T09:13:55;26.60;99.90
6106;DHT22;3083;51.508;7.966;2023-06-26T09:16:24;26.40;99.90
6106;DHT22;3083;51.508;7.966;2023-06-26T09:18:52;26.50;99.90
6106;DHT22;3083;51.508;7.966;2023-06-26T09:21:19;26.60;99.90
6106;DHT22;3083;51.508;7.966;2023-06-26T09:23:46;26.60;99.90
6106;DHT22;3083;51.508;7.966;2023-06-26T09:26:15;26.80;99.90
6106;DHT22;3083;51.508;7.966;2023-06-26T09:28:42;26.70;99.90
6106;DHT22;3083;51.508;7.966;2023-06-26T09:31:09;26.60;99.90
6106;DHT22;3083;51.508;7.966;2023-06-26T09:33:38;26.40;99.90
6106;DHT22;3083;51.508;7.966;2023-06-26T09:36:05;26.40;99.90
6106;DHT22;3083;51.508;7.966;2023-06-26T09:38:34;26.30;99.90
6106;DHT22;3083;51.508;7.966;2023-06-26T09:41:02;26.20;99.90
6106;DHT22;3083;51.508;7.966;2023-06-26T09:43:30;25.90;99.90
6106;DHT22;3083;51.508;7.966;2023-06-26T09:45:58;25.80;99.90
6106;DHT22;3083;51.508;7.966;2023-06-26T09:48:25;25.70;99.90
6106;DHT22;3083;51.508;7.966;2023-06-26T09:50:53;25.60;99.90
6106;DHT22;3083;51.508;7.966;2023-06-26T09:53:20;25.40;99.90
6106;DHT22;3083;51.508;7.966;2023-06-26T09:55:47;25.40;99.90
6106;DHT22;3083;51.508;7.966;2023-06-26T09:58:15;25.40;99.90
6106;DHT22;3083;51.508;7.966;2023-06-26T10:00:44;25.40;99.90
6106;DHT22;3083;51.508;7.966;2023-06-26T10:03:11;25.50;99.90
6106;DHT22;3083;51.508;7.966;2023-06-26T10:05:39;25.70;99.90
6106;DHT22;3083;51.508;7.966;2023-06-26T10:08:06;25.80;99.90
6106;DHT22;3083;51.508;7.966;2023-06-26T10:10:35;26.10;99.90
6106;DHT22;3083;51.508;7.966;2023-06-26T10:13:08;26.10;99.90
6106;DHT22;3083;51.508;7.966;2023-06-26T10:15:36;26.00;99.90
6106;DHT22;3083;51.508;7.966;2023-06-26T10:18:05;25.90;99.90
6106;DHT22;3083;51.508;7.966;2023-06-26T10:20:32;25.80;99.90
6106;DHT22;3083;51.508;7.966;2023-06-26T10:23:01;25.80;99.90
6106;DHT22;3083;51.508;7.966;2023-06-26T10:25:31;25.70;99.90
6106;DHT22;3083;51.508;7.966;2023-06-26T10:28:00;25.80;99.90
6106;DHT22;3083;51.508;7.966;2023-06-26T10:30:32;25.90;99.90
6106;DHT22;3083;51.508;7.966;2023-06-26T10:33:00;25.70;99.90
6106;DHT22;3083;51.508;7.966;2023-06-26T10:35:30;25.50;99.90
6106;DHT22;3083;51.508;7.966;2023-06-26T10:38:01;25.30;99.90
6106;DHT22;3083;51.508;7.966;2023-06-26T10:40:33;25.10;99.90
6106;DHT22;3083;51.508;7.966;2023-06-26T10:43:07;24.90;99.90
6106;DHT22;3083;51.508;7.966;2023-06-26T10:45:35;24.90;99.90
6106;DHT22;3083;51.508;7.966;2023-06-26T10:48:02;25.10;99.90
6106;DHT22;3083;51.508;7.966;2023-06-26T10:50:31;25.50;99.90
6106;DHT22;3083;51.508;7.966;2023-06-26T10:53:14;26.10;99.90
6106;DHT22;3083;51.508;7.966;2023-06-26T10:55:50;26.60;99.90
6106;DHT22;3083;51.508;7.966;2023-06-26T10:58:42;26.70;99.90
6106;DHT22;3083;51.508;7.966;2023-06-26T11:01:18;26.50;99.90
6106;DHT22;3083;51.508;7.966;2023-06-26T11:03:47;26.10;99.90
6106;DHT22;3083;51.508;7.966;2023-06-26T11:06:18;25.80;99.90
6106;DHT22;3083;51.508;7.966;2023-06-26T11:08:46;25.50;99.90
6106;DHT22;3083;51.508;7.966;2023-06-26T11:11:12;25.40;99.90
6106;DHT22;3083;51.508;7.966;2023-06-26T11:13:39;25.40;99.90
6106;DHT22;3083;51.508;7.966;2023-06-26T11:16:06;25.70;99.90
6106;DHT22;3083;51.508;7.966;2023-06-26T11:18:34;26.00;99.90
6106;DHT22;3083;51.508;7.966;2023-06-26T11:21:05;26.30;99.90
6106;DHT22;3083;51.508;7.966;2023-06-26T11:23:36;26.40;99.90
6106;DHT22;3083;51.508;7.966;2023-06-26T11:26:17;26.40;99.90
6106;DHT22;3083;51.508;7.966;2023-06-26T11:28:48;26.60;99.90
6106;DHT22;3083;51.508;7.966;2023-06-26T11:31:25;26.80;99.90
6106;DHT22;3083;51.508;7.966;2023-06-26T11:33:53;27.00;99.90
6106;DHT22;3083;51.508;7.966;2023-06-26T11:36:21;27.20;99.90
6106;DHT22;3083;51.508;7.966;2023-06-26T11:38:54;27.40;99.90
6106;DHT22;3083;51.508;7.966;2023-06-26T11:41:22;27.60;99.90
6106;DHT22;3083;51.508;7.966;2023-06-26T11:43:49;27.80;99.90
6106;DHT22;3083;51.508;7.966;2023-06-26T11:46:16;27.80;99.90
6106;DHT22;3083;51.508;7.966;2023-06-26T11:48:43;27.50;99.90
6106;DHT22;3083;51.508;7.966;2023-06-26T11:51:12;27.40;99.90
6106;DHT22;3083;51.508;7.966;2023-06-26T11:53:41;27.20;99.90
6106;DHT22;3083;51.508;7.966;2023-06-26T11:56:10;27.00;99.90
6106;DHT22;3083;51.508;7.966;2023-06-26T11:58:55;26.50;99.90
6106;DHT22;3083;51.508;7.966;2023-06-26T12:01:23;26.10;99.90
6106;DHT22;3083;51.508;7.966;2023-06-26T12:03:50;26.00;99.90
6106;DHT22;3083;51.508;7.966;2023-06-26T12:06:17;26.20;99.90
6106;DHT22;3083;51.508;7.966;2023-06-26T12:08:44;26.40;99.90
6106;DHT22;3083;51.508;7.966;2023-06-26T12:11:13;26.60;99.90
6106;DHT22;3083;51.508;7.966;2023-06-26T12:13:40;26.90;99.90
6106;DHT22;3083;51.508;7.966;2023-06-26T12:16:07;27.20;99.90
6106;DHT22;3083;51.508;7.966;2023-06-26T12:18:35;27.40;99.90
6106;DHT22;3083;51.508;7.966;2023-06-26T12:21:02;27.50;99.90
6106;DHT22;3083;51.508;7.966;2023-06-26T12:23:32;27.80;99.90
6106;DHT22;3083;51.508;7.966;2023-06-26T12:26:17;27.90;99.90
6106;DHT22;3083;51.508;7.966;2023-06-26T12:28:44;27.90;99.90
6106;DHT22;3083;51.508;7.966;2023-06-26T12:31:13;27.60;99.90
6106;DHT22;3083;51.508;7.966;2023-06-26T12:33:42;27.10;99.90
6106;DHT22;3083;51.508;7.966;2023-06-26T12:36:11;26.50;99.90
6106;DHT22;3083;51.508;7.966;2023-06-26T12:38:38;26.00;99.90
6106;DHT22;3083;51.508;7.966;2023-06-26T12:41:05;25.70;99.90
6106;DHT22;3083;51.508;7.966;2023-06-26T12:43:39;25.50;99.90
6106;DHT22;3083;51.508;7.966;2023-06-26T12:46:06;25.40;99.90
6106;DHT22;3083;51.508;7.966;2023-06-26T12:48:37;25.30;99.90
6106;DHT22;3083;51.508;7.966;2023-06-26T12:51:11;25.10;99.90
6106;DHT22;3083;51.508;7.966;2023-06-26T12:53:38;24.90;99.90
6106;DHT22;3083;51.508;7.966;2023-06-26T12:56:06;24.80;99.90
6106;DHT22;3083;51.508;7.966;2023-06-26T12:58:33;24.60;99.90
6106;DHT22;3083;51.508;7.966;2023-06-26T13:01:04;24.40;99.90
6106;DHT22;3083;51.508;7.966;2023-06-26T13:03:31;24.30;99.90
6106;DHT22;3083;51.508;7.966;2023-06-26T13:05:57;24.20;99.90
6106;DHT22;3083;51.508;7.966;2023-06-26T13:08:24;24.10;99.90
6106;DHT22;3083;51.508;7.966;2023-06-26T13:10:51;24.10;99.90
6106;DHT22;3083;51.508;7.966;2023-06-26T13:13:18;24.10;99.90
6106;DHT22;3083;51.508;7.966;2023-06-26T13:15:45;24.30;99.90
6106;DHT22;3083;51.508;7.966;2023-06-26T13:18:13;24.60;99.90
6106;DHT22;3083;51.508;7.966;2023-06-26T13:20:40;24.90;99.90
6106;DHT22;3083;51.508;7.966;2023-06-26T13:23:07;25.00;99.90
6106;DHT22;3083;51.508;7.966;2023-06-26T13:25:34;25.20;99.90
6106;DHT22;3083;51.508;7.966;2023-06-26T13:28:01;25.40;99.90
6106;DHT22;3083;51.508;7.966;2023-06-26T13:30:27;25.60;99.90
6106;DHT22;3083;51.508;7.966;2023-06-26T13:32:55;25.90;99.90
6106;DHT22;3083;51.508;7.966;2023-06-26T13:35:23;26.10;99.90
6106;DHT22;3083;51.508;7.966;2023-06-26T13:37:50;26.30;99.90
6106;DHT22;3083;51.508;7.966;2023-06-26T13:40:17;26.50;99.90
6106;DHT22;3083;51.508;7.966;2023-06-26T13:42:43;26.40;99.90
6106;DHT22;3083;51.508;7.966;2023-06-26T13:45:11;26.20;99.90
6106;DHT22;3083;51.508;7.966;2023-06-26T13:47:38;25.80;99.90
6106;DHT22;3083;51.508;7.966;2023-06-26T13:50:07;25.50;99.90
6106;DHT22;3083;51.508;7.966;2023-06-26T13:52:36;25.40;99.90
6106;DHT22;3083;51.508;7.966;2023-06-26T13:55:03;25.30;99.90
6106;DHT22;3083;51.508;7.966;2023-06-26T13:57:31;25.20;99.90
6106;DHT22;3083;51.508;7.966;2023-06-26T13:59:58;25.10;99.90
6106;DHT22;3083;51.508;7.966;2023-06-26T14:02:25;25.10;99.90
6106;DHT22;3083;51.508;7.966;2023-06-26T14:04:52;25.00;99.90
6106;DHT22;3083;51.508;7.966;2023-06-26T14:07:19;25.10;99.90
6106;DHT22;3083;51.508;7.966;2023-06-26T14:09:47;25.20;99.90
6106;DHT22;3083;51.508;7.966;2023-06-26T14:12:14;25.30;99.90
6106;DHT22;3083;51.508;7.966;2023-06-26T14:14:41;25.30;99.90
6106;DHT22;3083;51.508;7.966;2023-06-26T14:17:08;25.40;99.90
6106;DHT22;3083;51.508;7.966;2023-06-26T14:19:36;25.40;99.90
6106;DHT22;3083;51.508;7.966;2023-06-26T14:22:03;25.40;99.90
6106;DHT22;3083;51.508;7.966;2023-06-26T14:24:30;25.20;99.90
6106;DHT22;3083;51.508;7.966;2023-06-26T14:26:58;25.00;99.90
6106;DHT22;3083;51.508;7.966;2023-06-26T14:29:25;24.90;99.90
6106;DHT22;3083;51.508;7.966;2023-06-26T14:31:52;24.90;99.90
6106;DHT22;3083;51.508;7.966;2023-06-26T14:34:19;25.00;99.90
6106;DHT22;3083;51.508;7.966;2023-06-26T14:36:46;25.00;99.90
6106;DHT22;3083;51.508;7.966;2023-06-26T14:39:13;25.10;99.90
6106;DHT22;3083;51.508;7.966;2023-06-26T14:41:40;25.20;99.90
6106;DHT22;3083;51.508;7.966;2023-06-26T14:44:08;25.10;99.90
6106;DHT22;3083;51.508;7.966;2023-06-26T14:46:36;25.00;99.90
6106;DHT22;3083;51.508;7.966;2023-06-26T14:49:03;25.00;99.90
6106;DHT22;3083;51.508;7.966;2023-06-26T14:51:30;25.00;99.90
6106;DHT22;3083;51.508;7.966;2023-06-26T14:53:57;24.90;99.90
6106;DHT22;3083;51.508;7.966;2023-06-26T14:56:24;24.80;99.90
6106;DHT22;3083;51.508;7.966;2023-06-26T14:58:51;24.70;99.90
6106;DHT22;3083;51.508;7.966;2023-06-26T15:01:19;24.80;99.90
6106;DHT22;3083;51.508;7.966;2023-06-26T15:03:46;24.70;99.90
6106;DHT22;3083;51.508;7.966;2023-06-26T15:06:13;24.60;99.90
6106;DHT22;3083;51.508;7.966;2023-06-26T15:08:40;24.50;99.90
6106;DHT22;3083;51.508;7.966;2023-06-26T15:11:07;24.50;99.90
6106;DHT22;3083;51.508;7.966;2023-06-26T15:13:34;24.50;99.90
6106;DHT22;3083;51.508;7.966;2023-06-26T15:16:00;24.40;99.90
6106;DHT22;3083;51.508;7.966;2023-06-26T15:18:29;24.30;99.90
6106;DHT22;3083;51.508;7.966;2023-06-26T15:20:55;24.30;99.90
6106;DHT22;3083;51.508;7.966;2023-06-26T15:23:22;24.30;99.90
6106;DHT22;3083;51.508;7.966;2023-06-26T15:25:49;24.40;99.90
6106;DHT22;3083;51.508;7.966;2023-06-26T15:28:16;24.50;99.90
6106;DHT22;3083;51.508;7.966;2023-06-26T15:30:44;24.40;99.90
6106;DHT22;3083;51.508;7.966;2023-06-26T15:33:11;24.30;99.90
6106;DHT22;3083;51.508;7.966;2023-06-26T15:35:40;24.30;99.90
6106;DHT22;3083;51.508;7.966;2023-06-26T15:38:06;24.30;99.90
6106;DHT22;3083;51.508;7.966;2023-06-26T15:40:33;24.30;99.90
6106;DHT22;3083;51.508;7.966;2023-06-26T15:43:00;24.30;99.90
6106;DHT22;3083;51.508;7.966;2023-06-26T15:45:27;24.30;99.90
6106;DHT22;3083;51.508;7.966;2023-06-26T15:47:54;24.30;99.90
6106;DHT22;3083;51.508;7.966;2023-06-26T15:50:21;24.20;99.90
6106;DHT22;3083;51.508;7.966;2023-06-26T15:52:49;24.10;99.90
6106;DHT22;3083;51.508;7.966;2023-06-26T15:55:16;24.00;99.90
6106;DHT22;3083;51.508;7.966;2023-06-26T15:57:43;24.00;99.90
6106;DHT22;3083;51.508;7.966;2023-06-26T16:00:11;24.00;99.90
6106;DHT22;3083;51.508;7.966;2023-06-26T16:02:38;24.00;99.90
6106;DHT22;3083;51.508;7.966;2023-06-26T16:05:05;23.90;99.90
6106;DHT22;3083;51.508;7.966;2023-06-26T16:07:32;23.80;99.90